Time;durP1;ratioP1;P1;durP2;ratioP2;P2;SDS_P1;SDS_P2;PMS_P1;PMS_P2;Temp;Humidity;BMP_temperature;BMP_pressure;BME280_temperature;BME280_humidity;BME280_pressure;Samples;Min_cycle;Max_cycle;Signal;HPM_P1;HPM_P2
2021/05/07 00:00:11;;;;;;;9.00;3.33;;;;;;;10.23;65.22;98747.31;1737202;81;21651;-79
2021/05/07 00:02:40;;;;;;;9.10;3.40;;;;;;;10.28;65.95;98746.25;1754223;81;21182;-78
2021/05/07 00:05:09;;;;;;;7.03;3.27;;;;;;;10.34;66.67;98733.56;1747764;81;21244;-79
2021/05/07 00:07:36;;;;;;;11.25;4.20;;;;;;;10.41;67.34;98734.25;1749604;81;21641;-78
2021/05/07 00:10:05;;;;;;;12.40;3.85;;;;;;;10.46;66.98;98734.48;1755029;81;21590;-78
2021/05/07 00:12:33;;;;;;;13.50;4.47;;;;;;;10.54;66.33;98742.93;1760857;81;21169;-78
2021/05/07 00:15:00;;;;;;;9.08;3.72;;;;;;;10.57;65.42;98752.38;1752703;81;22198;-79
2021/05/07 00:17:28;;;;;;;10.08;3.87;;;;;;;10.62;64.39;98762.62;1760225;81;21496;-78
2021/05/07 00:19:56;;;;;;;10.08;4.30;;;;;;;10.63;64.15;98768.23;1760468;81;21166;-78
2021/05/07 00:22:23;;;;;;;12.53;4.22;;;;;;;10.66;64.07;98778.52;1799513;79;21167;-79
2021/05/07 00:24:53;;;;;;;11.25;4.12;;;;;;;10.66;63.94;98767.67;1793485;79;21477;-78
2021/05/07 00:27:20;;;;;;;11.93;4.50;;;;;;;10.68;64.13;98752.03;1800673;79;21177;-78
2021/05/07 00:29:48;;;;;;;10.20;3.62;;;;;;;10.71;64.93;98742.85;1732903;82;21139;-78
2021/05/07 00:32:15;;;;;;;8.95;3.98;;;;;;;10.73;64.68;98730.65;1753883;81;21198;-78
2021/05/07 00:34:44;;;;;;;8.50;4.35;;;;;;;10.74;64.32;98733.21;1741806;81;21207;-78
2021/05/07 00:37:11;;;;;;;11.50;4.65;;;;;;;10.75;65.78;98737.95;1764224;81;21534;-77
2021/05/07 00:39:39;;;;;;;16.10;5.25;;;;;;;10.72;66.18;98737.61;1750421;82;21622;-79
2021/05/07 00:42:09;;;;;;;14.38;4.72;;;;;;;10.69;67.99;98738.15;1763545;81;21181;-78
2021/05/07 00:44:37;;;;;;;14.23;4.75;;;;;;;10.66;68.21;98739.53;1767580;81;21180;-81
2021/05/07 00:47:04;;;;;;;11.80;5.03;;;;;;;10.60;68.60;98737.97;1757647;81;21169;-79
2021/05/07 00:49:36;;;;;;;9.90;4.28;;;;;;;10.56;67.11;98735.06;1761059;81;21598;-78
2021/05/07 00:52:06;;;;;;;10.30;4.70;;;;;;;10.52;65.82;98727.83;1792136;79;21198;-78
2021/05/07 00:54:35;;;;;;;11.35;4.53;;;;;;;10.46;67.02;98730.59;1811406;79;21637;-79
2021/05/07 00:57:03;;;;;;;14.55;5.22;;;;;;;10.42;70.17;98727.69;1798110;79;22127;-77
2021/05/07 00:59:31;;;;;;;9.45;4.53;;;;;;;10.36;67.37;98726.57;1796329;79;21174;-79
2021/05/07 01:01:59;;;;;;;9.78;4.58;;;;;;;10.34;66.36;98710.18;1798956;79;21158;-79
2021/05/07 01:04:27;;;;;;;10.00;4.35;;;;;;;10.34;67.31;98706.28;1793423;79;21602;-78
2021/05/07 01:06:55;;;;;;;11.18;4.30;;;;;;;10.32;68.12;98704.17;1795113;79;21481;-78
2021/05/07 01:09:23;;;;;;;9.95;4.17;;;;;;;10.32;67.50;98705.02;1741280;82;21159;-78
2021/05/07 01:11:50;;;;;;;7.83;3.75;;;;;;;10.31;66.07;98715.03;1762560;81;21177;-78
2021/05/07 01:14:17;;;;;;;9.35;4.42;;;;;;;10.28;66.89;98715.53;1759342;81;21582;-79
2021/05/07 01:16:45;;;;;;;10.20;4.20;;;;;;;10.27;68.79;98719.04;1766909;81;21149;-79
2021/05/07 01:19:14;;;;;;;13.43;4.15;;;;;;;10.27;69.36;98722.94;1755897;81;21151;-78
2021/05/07 01:21:44;;;;;;;11.75;4.17;;;;;;;10.27;68.03;98722.48;1751163;81;21205;-79
2021/05/07 01:24:12;;;;;;;7.25;3.50;;;;;;;10.29;65.28;98719.84;1797277;79;21149;-79
2021/05/07 01:26:43;;;;;;;8.95;4.37;;;;;;;10.27;67.67;98710.79;1805656;79;21153;-78
2021/05/07 01:29:12;;;;;;;8.98;4.12;;;;;;;10.30;68.03;98703.38;1805337;78;21594;-78
2021/05/07 01:31:45;;;;;;;6.33;3.55;;;;;;;10.31;70.56;98711.59;1781125;79;21145;-80
2021/05/07 01:34:14;;;;;;;7.10;3.67;;;;;;;10.33;68.57;98715.83;1745258;82;21184;-78
2021/05/07 01:36:41;;;;;;;8.45;3.80;;;;;;;10.37;68.46;98705.36;1753208;81;21742;-79
2021/05/07 01:39:09;;;;;;;10.08;3.83;;;;;;;10.39;68.62;98695.77;1741258;82;21627;-78
2021/05/07 01:41:36;;;;;;;11.88;3.40;;;;;;;10.43;67.39;98689.58;1763343;81;21211;-78
2021/05/07 01:44:05;;;;;;;10.40;4.03;;;;;;;10.43;67.97;98682.63;1767435;81;21181;-78
2021/05/07 01:46:32;;;;;;;8.90;3.72;;;;;;;10.47;67.41;98682.92;1766791;81;21935;-77
2021/05/07 01:49:00;;;;;;;8.03;3.85;;;;;;;10.52;67.25;98679.75;1750207;81;21173;-79
2021/05/07 01:51:28;;;;;;;8.33;4.45;;;;;;;10.57;67.82;98680.05;1765996;81;21174;-78
2021/05/07 01:53:57;;;;;;;9.43;3.55;;;;;;;10.63;67.33;98677.25;1710030;82;21182;-78
2021/05/07 01:56:25;;;;;;;11.57;4.70;;;;;;;10.66;67.36;98674.53;1789480;79;21186;-78
2021/05/07 01:58:54;;;;;;;13.68;4.37;;;;;;;10.68;67.59;98662.34;1744983;82;21175;-78
2021/05/07 02:01:22;;;;;;;11.25;4.62;;;;;;;10.71;66.74;98668.75;1766878;81;21682;-78
2021/05/07 02:03:51;;;;;;;9.80;4.50;;;;;;;10.69;69.40;98667.95;1743227;82;21636;-79
2021/05/07 02:06:21;;;;;;;11.40;4.67;;;;;;;10.66;69.12;98671.48;1765536;81;21161;-79
2021/05/07 02:08:49;;;;;;;12.35;5.05;;;;;;;10.62;67.49;98668.58;1761613;81;21205;-77
2021/05/07 02:11:17;;;;;;;10.28;4.83;;;;;;;10.57;67.54;98663.16;1746973;81;21145;-77
2021/05/07 02:13:45;;;;;;;10.30;4.58;;;;;;;10.51;66.04;98662.44;1729011;82;21197;-77
2021/05/07 02:16:13;;;;;;;10.15;4.50;;;;;;;10.47;67.53;98659.99;1788456;79;21132;-78
2021/05/07 02:18:41;;;;;;;9.98;4.65;;;;;;;10.45;68.54;98653.99;1803126;79;21122;-81
2021/05/07 02:21:11;;;;;;;8.38;4.45;;;;;;;10.43;68.24;98646.24;1801256;79;21488;-78
2021/05/07 02:23:39;;;;;;;9.43;4.58;;;;;;;10.42;69.17;98651.48;1738668;81;21673;-80
2021/05/07 02:26:06;;;;;;;10.23;4.40;;;;;;;10.42;67.63;98656.67;1732483;81;21171;-82
2021/05/07 02:28:35;;;;;;;17.10;5.10;;;;;;;10.37;67.85;98647.73;1738868;82;21154;-78
2021/05/07 02:31:03;;;;;;;13.78;5.62;;;;;;;10.32;68.22;98649.16;1742433;81;21640;-78
2021/05/07 02:33:31;;;;;;;13.83;4.60;;;;;;;10.28;68.49;98647.52;1804912;79;21627;-80
2021/05/07 02:35:59;;;;;;;10.05;4.50;;;;;;;10.19;70.61;98657.38;1786177;79;21165;-81
2021/05/07 02:38:27;;;;;;;10.85;4.20;;;;;;;10.19;68.54;98653.48;1806754;79;21177;-79
2021/05/07 02:40:55;;;;;;;10.63;3.90;;;;;;;10.19;70.39;98658.22;1792378;79;21167;-78
2021/05/07 02:43:22;;;;;;;12.68;3.87;;;;;;;10.15;71.25;98654.86;1794523;78;21181;-78
2021/05/07 02:45:50;;;;;;;9.75;4.30;;;;;;;10.16;70.21;98654.40;1802291;79;22283;-78
2021/05/07 02:48:18;;;;;;;9.50;4.40;;;;;;;10.15;70.14;98661.34;1735827;82;21201;-80
2021/05/07 02:50:46;;;;;;;10.72;4.35;;;;;;;10.17;70.99;98652.22;1745046;81;21656;-77
2021/05/07 02:53:14;;;;;;;9.38;4.12;;;;;;;10.21;69.58;98660.31;1766380;81;21162;-77
2021/05/07 02:55:42;;;;;;;10.58;4.30;;;;;;;10.21;69.08;98657.72;1744820;82;21169;-78
2021/05/07 02:58:10;;;;;;;10.60;4.65;;;;;;;10.20;68.31;98659.06;1766374;81;21177;-78
2021/05/07 03:00:38;;;;;;;8.53;3.72;;;;;;;10.20;67.82;98667.69;1744681;82;21177;-80
2021/05/07 03:03:06;;;;;;;12.07;4.55;;;;;;;10.20;68.04;98669.45;1753399;81;21649;-78
2021/05/07 03:05:33;;;;;;;10.23;4.25;;;;;;;10.22;67.42;98673.69;1739558;82;21221;-78
2021/05/07 03:08:00;;;;;;;9.35;3.90;;;;;;;10.23;67.99;98665.47;1800355;78;21643;-77
2021/05/07 03:10:28;;;;;;;10.95;4.45;;;;;;;10.24;67.31;98660.20;1722837;81;21622;-79
2021/05/07 03:12:55;;;;;;;10.60;4.08;;;;;;;10.28;67.56;98668.30;1766335;81;22061;-78
2021/05/07 03:15:22;;;;;;;10.38;3.90;;;;;;;10.31;67.25;98666.12;1747198;81;21174;-79
2021/05/07 03:17:53;;;;;;;10.35;3.67;;;;;;;10.32;66.73;98664.75;1761596;81;21634;-79
2021/05/07 03:20:19;;;;;;;11.55;4.40;;;;;;;10.32;66.87;98670.40;1749086;81;21174;-79
2021/05/07 03:22:47;;;;;;;9.35;4.20;;;;;;;10.33;67.24;98672.12;1758247;81;22261;-79
2021/05/07 03:25:15;;;;;;;8.28;3.58;;;;;;;10.30;67.55;98660.50;1751009;81;21165;-78
2021/05/07 03:27:43;;;;;;;6.87;3.70;;;;;;;10.35;67.18;98658.63;1735624;82;21164;-78
2021/05/07 03:30:12;;;;;;;5.83;3.58;;;;;;;10.37;67.71;98657.29;1752842;81;21168;-78
2021/05/07 03:32:40;;;;;;;13.53;3.85;;;;;;;10.40;68.68;98667.56;1732479;82;21666;-78
2021/05/07 03:35:10;;;;;;;7.67;3.45;;;;;;;10.39;68.90;98668.02;1740728;81;21138;-79
2021/05/07 03:37:38;;;;;;;10.82;4.10;;;;;;;10.40;69.51;98675.36;1758066;81;21145;-80
2021/05/07 03:40:07;;;;;;;10.72;4.35;;;;;;;10.40;70.28;98673.61;1742822;82;21177;-78
2021/05/07 03:42:34;;;;;;;7.47;3.75;;;;;;;10.39;70.54;98668.48;1766465;81;21192;-79
2021/05/07 03:45:03;;;;;;;10.30;4.17;;;;;;;10.41;69.61;98674.02;1785387;79;21126;-78
2021/05/07 03:47:30;;;;;;;8.15;3.98;;;;;;;10.42;71.07;98666.61;1789601;79;21459;-79
2021/05/07 03:49:58;;;;;;;9.53;4.28;;;;;;;10.43;71.21;98667.48;1784390;79;21190;-78
2021/05/07 03:52:25;;;;;;;9.63;4.62;;;;;;;10.43;70.84;98667.03;1790668;79;21131;-78
2021/05/07 03:54:53;;;;;;;10.78;4.60;;;;;;;10.45;70.55;98661.33;1787611;79;21186;-77
2021/05/07 03:57:25;;;;;;;10.18;4.62;;;;;;;10.43;71.09;98667.03;1798653;79;21165;-79
2021/05/07 03:59:53;;;;;;;7.15;3.70;;;;;;;10.44;73.19;98676.97;1804729;79;21153;-78
2021/05/07 04:02:21;;;;;;;10.60;4.00;;;;;;;10.45;72.10;98679.53;1801439;79;21677;-78
2021/05/07 04:04:51;;;;;;;8.05;3.90;;;;;;;10.49;72.07;98674.63;1737189;82;21164;-77
2021/05/07 04:07:19;;;;;;;11.30;5.00;;;;;;;10.55;71.23;98669.69;1754147;81;21175;-79
2021/05/07 04:10:07;;;;;;;14.70;4.78;;;;;;;10.62;71.51;98674.23;1767547;81;21189;-78
2021/05/07 04:15:03;;;;;;;9.68;4.47;;;;;;;10.77;71.34;98672.91;1746877;81;22233;-78
2021/05/07 04:17:30;;;;;;;13.10;5.33;;;;;;;10.84;71.03;98674.39;1757634;81;21171;-78
2021/05/07 04:19:57;;;;;;;18.40;5.22;;;;;;;10.91;70.93;98679.34;1748194;81;21197;-80
2021/05/07 04:22:24;;;;;;;12.55;5.12;;;;;;;10.99;71.03;98684.75;1754645;81;21228;-79
2021/05/07 04:24:54;;;;;;;13.05;5.55;;;;;;;11.01;70.55;98677.29;1744926;81;21186;-79
2021/05/07 04:27:21;;;;;;;27.27;5.95;;;;;;;11.09;70.09;98675.73;1721275;82;21168;-78
2021/05/07 04:29:48;;;;;;;11.93;5.53;;;;;;;11.15;69.86;98679.42;1727110;82;21178;-79
2021/05/07 04:32:16;;;;;;;13.80;5.87;;;;;;;11.21;69.58;98678.37;1722435;82;22013;-78
2021/05/07 04:34:44;;;;;;;13.15;4.60;;;;;;;11.25;69.96;98679.96;1741819;82;21142;-77
2021/05/07 04:37:12;;;;;;;9.78;4.60;;;;;;;11.26;69.44;98684.25;1723022;82;21166;-79
2021/05/07 04:39:39;;;;;;;10.82;4.17;;;;;;;11.28;69.66;98680.71;1715124;82;21169;-77
2021/05/07 04:42:07;;;;;;;7.42;3.80;;;;;;;11.37;68.96;98676.09;1719707;82;21191;-77
2021/05/07 04:44:34;;;;;;;8.13;3.60;;;;;;;11.44;68.44;98667.14;1743903;82;21503;-79
2021/05/07 04:47:01;;;;;;;11.85;5.60;;;;;;;11.48;68.17;98675.23;1727504;82;21638;-78
2021/05/07 04:49:29;;;;;;;8.45;3.27;;;;;;;11.51;68.12;98669.94;1741585;82;21710;-78
2021/05/07 04:51:56;;;;;;;11.68;3.42;;;;;;;11.58;67.59;98673.16;1748343;81;21177;-78
2021/05/07 04:54:25;;;;;;;7.20;3.60;;;;;;;11.64;66.75;98669.91;1740610;82;21185;-77
2021/05/07 04:56:52;;;;;;;9.50;4.28;;;;;;;11.65;66.56;98670.74;1740104;82;21189;-78
2021/05/07 04:59:19;;;;;;;8.60;4.62;;;;;;;11.66;66.54;98673.77;1751601;81;21143;-79
2021/05/07 05:01:47;;;;;;;11.30;4.28;;;;;;;11.60;67.01;98672.65;1744474;81;21223;-79
2021/05/07 05:04:14;;;;;;;8.88;3.95;;;;;;;11.57;66.64;98680.13;1727360;83;21655;-79
2021/05/07 05:06:41;;;;;;;11.68;3.37;;;;;;;11.61;66.30;98672.60;1741133;81;21161;-79
2021/05/07 05:09:08;;;;;;;8.03;3.90;;;;;;;11.66;66.43;98672.00;1756663;81;21742;-78
2021/05/07 05:11:36;;;;;;;9.73;4.47;;;;;;;11.74;66.30;98671.27;1732528;82;21173;-78
2021/05/07 05:14:04;;;;;;;13.53;4.03;;;;;;;11.87;65.95;98670.80;1733336;82;21184;-78
2021/05/07 05:16:31;;;;;;;14.87;4.40;;;;;;;11.99;65.81;98669.53;1756646;81;21150;-78
2021/05/07 05:18:59;;;;;;;13.62;4.40;;;;;;;12.03;65.29;98678.92;1758154;80;21567;-78
2021/05/07 05:21:26;;;;;;;11.00;4.83;;;;;;;12.08;65.25;98677.85;1760661;81;21200;-78
2021/05/07 05:23:54;;;;;;;13.45;5.28;;;;;;;12.14;65.21;98673.70;1741711;82;21647;-78
2021/05/07 05:26:21;;;;;;;12.88;4.62;;;;;;;12.17;65.04;98677.95;1742833;81;21134;-79
2021/05/07 05:28:49;;;;;;;20.45;4.75;;;;;;;12.27;64.79;98674.53;1757834;81;21646;-78
2021/05/07 05:31:16;;;;;;;9.30;3.80;;;;;;;12.32;64.78;98670.00;1742737;82;21173;-79
2021/05/07 05:33:44;;;;;;;15.00;5.10;;;;;;;12.39;64.34;98679.27;1766944;81;21463;-80
2021/05/07 05:36:11;;;;;;;10.63;4.47;;;;;;;12.42;64.12;98670.03;1743385;82;21169;-79
2021/05/07 05:38:39;;;;;;;11.08;4.53;;;;;;;12.49;64.63;98663.68;1745752;81;21288;-79
2021/05/07 05:41:06;;;;;;;11.75;4.40;;;;;;;12.65;64.14;98668.26;1755068;81;21185;-78
2021/05/07 05:43:33;;;;;;;11.80;4.22;;;;;;;12.72;64.27;98670.56;1762531;81;21670;-79
2021/05/07 05:46:01;;;;;;;10.15;4.17;;;;;;;12.84;64.26;98669.67;1751929;81;21145;-78
2021/05/07 05:48:29;;;;;;;9.88;4.25;;;;;;;12.97;63.89;98663.48;1747290;81;21176;-79
2021/05/07 05:50:57;;;;;;;11.95;4.60;;;;;;;13.05;63.64;98663.58;1755176;81;21185;-79
2021/05/07 05:53:24;;;;;;;11.30;4.95;;;;;;;13.12;63.37;98664.99;1754523;81;21194;-78
2021/05/07 05:55:52;;;;;;;10.75;4.60;;;;;;;13.21;63.38;98661.16;1743251;81;21166;-79
2021/05/07 05:58:21;;;;;;;16.87;4.80;;;;;;;13.35;63.22;98662.34;1793583;79;21158;-79
2021/05/07 06:00:48;;;;;;;9.45;4.45;;;;;;;13.49;62.79;98660.84;1743685;81;21179;-79
2021/05/07 06:03:15;;;;;;;9.95;4.67;;;;;;;13.62;62.00;98661.13;1762360;81;21254;-78
2021/05/07 06:05:43;;;;;;;15.65;4.85;;;;;;;13.71;61.55;98655.51;1763787;81;21185;-78
2021/05/07 06:08:11;;;;;;;9.53;4.87;;;;;;;13.79;61.06;98661.70;1765694;81;21178;-79
2021/05/07 06:10:38;;;;;;;11.12;4.70;;;;;;;13.90;60.62;98657.28;1742990;81;21190;-78
2021/05/07 06:13:06;;;;;;;11.90;4.03;;;;;;;13.96;60.71;98651.77;1746673;81;21625;-77
2021/05/07 06:15:33;;;;;;;12.25;5.33;;;;;;;14.07;60.27;98648.21;1748291;81;21598;-79
2021/05/07 06:18:00;;;;;;;11.38;4.47;;;;;;;14.16;60.21;98644.78;1741066;81;21177;-79
2021/05/07 06:20:30;;;;;;;12.85;4.78;;;;;;;14.20;58.87;98643.71;1799730;79;21158;-79
2021/05/07 06:22:57;;;;;;;26.55;14.20;;;;;;;14.15;58.01;98645.71;1799774;79;21165;-78
2021/05/07 06:25:26;;;;;;;24.98;8.18;;;;;;;14.28;59.00;98646.38;1806075;78;21159;-78
2021/05/07 06:27:53;;;;;;;15.95;5.03;;;;;;;14.40;59.13;98647.53;1817044;78;21135;-82
2021/05/07 06:30:21;;;;;;;9.58;4.70;;;;;;;14.51;59.05;98647.88;1818882;78;21118;-79
2021/05/07 06:32:48;;;;;;;10.82;4.65;;;;;;;14.66;57.45;98641.09;1813663;78;21645;-79
2021/05/07 06:35:15;;;;;;;9.33;4.62;;;;;;;14.71;58.31;98639.08;1800810;78;21212;-79
2021/05/07 06:37:44;;;;;;;10.50;4.83;;;;;;;14.88;56.46;98631.72;1809076;78;21184;-78
2021/05/07 06:40:13;;;;;;;12.10;5.00;;;;;;;14.98;56.85;98624.25;1789292;78;21177;-82
2021/05/07 06:42:40;;;;;;;8.40;4.12;;;;;;;15.04;55.71;98616.52;1820138;78;21179;-78
2021/05/07 06:45:10;;;;;;;10.40;4.72;;;;;;;15.24;56.69;98626.84;1806733;77;21137;-78
2021/05/07 06:47:38;;;;;;;12.10;4.87;;;;;;;15.38;55.65;98623.95;1817435;78;21144;-80
2021/05/07 06:50:07;;;;;;;7.00;4.20;;;;;;;15.41;52.53;98615.94;1807381;78;21182;-79
2021/05/07 06:52:35;;;;;;;10.00;4.33;;;;;;;15.49;53.52;98613.29;1816912;78;21149;-78
2021/05/07 06:55:04;;;;;;;11.18;4.50;;;;;;;15.63;54.68;98613.87;1804036;78;21150;-78
2021/05/07 06:57:32;;;;;;;8.90;4.25;;;;;;;15.76;53.91;98602.78;1812074;78;21130;-78
2021/05/07 06:59:59;;;;;;;10.18;4.53;;;;;;;15.75;52.64;98601.92;1793281;78;21189;-82
2021/05/07 07:02:27;;;;;;;10.23;4.40;;;;;;;15.82;51.54;98602.45;1782266;80;21189;-80
2021/05/07 07:04:56;;;;;;;9.65;4.42;;;;;;;16.03;53.26;98603.03;1751605;81;21677;-79
2021/05/07 07:07:27;;;;;;;9.20;4.33;;;;;;;16.24;52.56;98590.04;1752646;80;21151;-80
2021/05/07 07:09:55;;;;;;;9.20;3.92;;;;;;;16.41;53.22;98581.67;1777582;80;21590;-80
2021/05/07 07:12:23;;;;;;;9.33;3.92;;;;;;;16.58;51.96;98582.03;1755849;80;21137;-79
2021/05/07 07:14:51;;;;;;;19.20;5.17;;;;;;;16.75;51.93;98580.59;1749980;81;21178;-78
2021/05/07 07:17:19;;;;;;;13.90;4.62;;;;;;;16.95;49.73;98582.52;1741374;82;21185;-80
2021/05/07 07:19:47;;;;;;;15.90;5.10;;;;;;;17.06;50.70;98584.88;1787873;79;21157;-78
2021/05/07 07:22:16;;;;;;;15.72;6.45;;;;;;;17.14;46.58;98578.34;1787717;79;21152;-79
2021/05/07 07:24:44;;;;;;;9.05;4.47;;;;;;;17.41;49.14;98570.57;1758203;80;21191;-79
2021/05/07 07:27:11;;;;;;;7.28;4.17;;;;;;;17.63;50.13;98568.29;1743411;81;21506;-78
2021/05/07 07:29:39;;;;;;;8.68;4.45;;;;;;;17.72;47.20;98562.08;1769312;80;21150;-80
2021/05/07 07:32:06;;;;;;;14.20;4.30;;;;;;;17.96;48.07;98559.71;1775350;80;21166;-80
2021/05/07 07:34:34;;;;;;;7.25;3.58;;;;;;;18.18;49.21;98555.22;1742476;80;21142;-79
2021/05/07 07:37:01;;;;;;;45.85;27.02;;;;;;;18.18;44.16;98555.22;1789496;79;22229;-79
2021/05/07 07:39:28;;;;;;;6.42;2.95;;;;;;;18.27;45.44;98550.20;1764073;80;21584;-79
2021/05/07 07:41:55;;;;;;;7.40;2.95;;;;;;;18.33;41.76;98544.19;1758523;80;21188;-78
2021/05/07 07:44:23;;;;;;;5.42;2.90;;;;;;;18.38;44.97;98546.89;1797254;79;21263;-79
2021/05/07 07:46:51;;;;;;;7.60;3.20;;;;;;;18.33;43.67;98543.70;1787908;79;21646;-79
2021/05/07 07:49:18;;;;;;;5.75;3.12;;;;;;;18.17;44.94;98550.44;1800515;79;21129;-78
2021/05/07 07:51:45;;;;;;;9.25;3.47;;;;;;;17.94;44.18;98547.13;1783569;79;21667;-79
2021/05/07 07:54:13;;;;;;;7.22;3.40;;;;;;;17.90;46.01;98545.16;1785647;79;21128;-80
2021/05/07 07:56:41;;;;;;;9.15;3.47;;;;;;;17.78;45.99;98543.28;1794326;79;21166;-79
2021/05/07 07:59:08;;;;;;;10.38;3.45;;;;;;;17.61;46.83;98551.77;1773480;80;21189;-79
2021/05/07 08:01:36;;;;;;;8.23;3.60;;;;;;;17.53;46.97;98548.78;1786530;79;21149;-79
2021/05/07 08:04:04;;;;;;;9.23;3.80;;;;;;;17.40;46.52;98563.13;1789752;79;21178;-78
2021/05/07 08:06:32;;;;;;;9.60;3.80;;;;;;;17.21;47.05;98560.80;1791493;79;21586;-79
2021/05/07 08:09:00;;;;;;;8.38;4.45;;;;;;;16.99;48.39;98544.63;1782746;79;22256;-79
2021/05/07 08:11:28;;;;;;;13.95;4.50;;;;;;;16.67;48.79;98544.73;1787561;79;21160;-78
2021/05/07 08:13:56;;;;;;;9.18;4.30;;;;;;;16.47;49.21;98548.52;1760790;80;21189;-79
2021/05/07 08:16:23;;;;;;;12.60;4.15;;;;;;;16.33;49.56;98549.31;1752873;80;21172;-79
2021/05/07 08:18:51;;;;;;;7.03;3.90;;;;;;;16.25;49.64;98558.96;1748618;80;21176;-79
2021/05/07 08:21:19;;;;;;;9.03;4.28;;;;;;;16.12;49.55;98545.31;1752751;80;21194;-79
2021/05/07 08:23:47;;;;;;;10.63;4.67;;;;;;;16.02;49.82;98541.05;1773896;80;21183;-79
2021/05/07 08:26:14;;;;;;;12.85;4.25;;;;;;;15.97;49.87;98552.25;1749132;81;21613;-79
2021/05/07 08:28:42;;;;;;;8.18;3.98;;;;;;;15.94;49.73;98555.90;1798819;79;21181;-78
2021/05/07 08:31:09;;;;;;;8.53;4.30;;;;;;;15.90;49.76;98550.45;1794425;79;21162;-78
2021/05/07 08:33:38;;;;;;;7.83;4.08;;;;;;;15.85;49.74;98554.61;1753774;81;21150;-81
2021/05/07 08:36:06;;;;;;;9.08;3.55;;;;;;;15.83;49.86;98551.70;1752594;81;21535;-79
2021/05/07 08:38:33;;;;;;;7.60;3.85;;;;;;;15.87;49.97;98558.47;1756828;81;21490;-78
2021/05/07 08:41:05;;;;;;;11.30;4.37;;;;;;;15.86;50.23;98556.32;1747659;81;22229;-79
2021/05/07 08:43:32;;;;;;;14.58;4.75;;;;;;;15.88;50.36;98557.55;1795805;79;21142;-81
2021/05/07 08:46:07;;;;;;;10.43;4.42;;;;;;;15.87;50.44;98566.33;1795484;79;21634;-82
2021/05/07 08:48:38;;;;;;;11.78;4.00;;;;;;;15.85;50.15;98561.64;1800729;79;21153;-80
2021/05/07 08:51:06;;;;;;;11.70;4.22;;;;;;;15.79;49.90;98560.67;1800966;79;21652;-78
2021/05/07 08:53:33;;;;;;;8.55;3.90;;;;;;;15.78;50.02;98564.23;1791804;79;21592;-79
2021/05/07 08:56:06;;;;;;;8.65;3.83;;;;;;;15.71;50.01;98563.20;1797605;79;21158;-79
2021/05/07 08:58:34;;;;;;;16.67;4.72;;;;;;;15.62;50.71;98562.41;1796504;79;21628;-79
2021/05/07 09:01:04;;;;;;;7.67;4.28;;;;;;;15.66;50.85;98565.72;1788739;79;21645;-78
2021/05/07 09:03:46;;;;;;;11.12;5.50;;;;;;;15.68;50.77;98559.45;1805120;79;21158;-79
2021/05/07 09:06:20;;;;;;;10.95;4.47;;;;;;;15.53;51.67;98525.38;1750474;81;21163;-78
2021/05/07 09:08:49;;;;;;;15.63;5.20;;;;;;;15.70;51.86;98558.91;1750286;81;21141;-83
2021/05/07 09:11:18;;;;;;;16.25;5.35;;;;;;;15.74;51.76;98549.58;1760757;81;21141;-81
2021/05/07 09:13:46;;;;;;;17.60;5.90;;;;;;;15.76;51.54;98551.20;1744205;81;21146;-79
2021/05/07 09:16:13;;;;;;;19.80;6.80;;;;;;;15.73;52.44;98545.28;1748683;81;21177;-78
2021/05/07 09:18:47;;;;;;;14.93;6.15;;;;;;;15.75;52.60;98544.73;1736716;81;21182;-78
2021/05/07 09:21:15;;;;;;;18.15;6.85;;;;;;;15.75;53.13;98547.36;1753564;81;21164;-79
2021/05/07 09:23:47;;;;;;;15.90;6.22;;;;;;;15.75;52.67;98536.88;1756690;81;22307;-80
2021/05/07 09:26:16;;;;;;;17.80;6.72;;;;;;;15.76;54.27;98535.48;1746263;81;21169;-80
2021/05/07 09:29:03;;;;;;;18.15;8.30;;;;;;;15.79;54.11;98535.77;1740161;81;21204;-82
2021/05/07 09:31:27;;;;;;;16.50;8.23;;;;;;;15.80;54.49;98534.38;1748600;81;21174;-82
2021/05/07 09:33:54;;;;;;;14.60;6.80;;;;;;;15.83;53.78;98539.91;1733767;81;21154;-81
2021/05/07 09:36:27;;;;;;;18.57;6.75;;;;;;;15.88;53.70;98535.27;1753789;81;21204;-79
2021/05/07 09:38:59;;;;;;;17.67;7.30;;;;;;;15.82;53.82;98529.91;1738772;81;21233;-79
2021/05/07 09:41:42;;;;;;;22.73;6.42;;;;;;;15.80;54.67;98536.16;1801090;79;21162;-79
2021/05/07 09:44:21;;;;;;;16.70;6.72;;;;;;;15.80;54.26;98538.31;1802081;79;21146;-79
2021/05/07 09:46:51;;;;;;;18.05;6.62;;;;;;;15.81;54.47;98539.15;1726794;82;21148;-82
2021/05/07 09:49:29;;;;;;;16.97;7.35;;;;;;;15.84;54.01;98539.00;1799194;79;21159;-79
2021/05/07 09:51:58;;;;;;;15.93;7.53;;;;;;;15.83;54.18;98539.44;1798602;79;22143;-80
2021/05/07 09:54:27;;;;;;;25.72;8.30;;;;;;;15.85;54.61;98534.12;1801022;79;21175;-79
2021/05/07 09:56:55;;;;;;;18.27;8.18;;;;;;;15.84;54.60;98535.06;1767101;81;21167;-79
2021/05/07 09:59:22;;;;;;;22.32;9.00;;;;;;;15.80;55.52;98531.77;1790533;79;21207;-79
2021/05/07 10:01:50;;;;;;;21.80;9.58;;;;;;;15.88;54.99;98529.55;1802685;78;21198;-78
2021/05/07 10:04:18;;;;;;;21.80;10.20;;;;;;;15.92;54.57;98514.51;1794103;79;21157;-78
2021/05/07 10:06:46;;;;;;;18.20;9.93;;;;;;;15.98;54.13;98508.92;1738623;81;21211;-77
2021/05/07 10:09:25;;;;;;;18.80;10.43;;;;;;;16.10;53.78;98501.66;1752123;81;21196;-79
2021/05/07 10:11:57;;;;;;;18.73;9.73;;;;;;;16.15;53.08;98501.39;1751263;81;21168;-79
2021/05/07 10:14:25;;;;;;;18.75;8.75;;;;;;;16.25;51.85;98491.22;1787025;79;21172;-80
2021/05/07 10:16:53;;;;;;;16.60;7.87;;;;;;;16.48;52.26;98493.81;1802188;79;21486;-78
2021/05/07 10:19:21;;;;;;;17.35;7.65;;;;;;;16.66;51.68;98492.72;1792827;79;21165;-78
2021/05/07 10:21:50;;;;;;;17.70;7.55;;;;;;;16.75;51.81;98485.23;1741367;81;21744;-78
2021/05/07 10:24:20;;;;;;;18.77;7.15;;;;;;;16.93;51.12;98484.17;1734948;81;21204;-79
2021/05/07 10:26:52;;;;;;;11.57;6.85;;;;;;;17.06;50.41;98474.58;1758226;81;21139;-78
2021/05/07 10:29:26;;;;;;;17.85;7.42;;;;;;;17.31;50.76;98479.65;1759385;81;21128;-79
2021/05/07 10:31:56;;;;;;;15.53;8.08;;;;;;;17.53;49.14;98475.20;1774777;80;21117;-78
2021/05/07 10:34:27;;;;;;;17.90;8.30;;;;;;;17.69;48.80;98479.01;1774240;80;21126;-78
2021/05/07 10:37:13;;;;;;;15.15;8.03;;;;;;;17.89;49.71;98466.75;1777932;80;21115;-78
2021/05/07 10:39:56;;;;;;;16.05;8.90;;;;;;;18.11;49.82;98465.83;1777254;80;21136;-79
2021/05/07 10:42:24;;;;;;;17.57;8.23;;;;;;;18.44;49.55;98454.37;1786349;80;21156;-78
2021/05/07 10:44:53;;;;;;;16.20;8.70;;;;;;;18.72;49.02;98457.76;1788124;79;21180;-78
2021/05/07 10:47:36;;;;;;;16.15;7.20;;;;;;;18.95;49.13;98455.34;1778555;80;21672;-78
2021/05/07 10:50:16;;;;;;;16.48;7.72;;;;;;;18.85;46.49;98457.29;1784208;80;21157;-80
2021/05/07 10:52:43;;;;;;;16.37;8.75;;;;;;;19.22;48.29;98452.09;1781158;80;21661;-77
2021/05/07 10:55:14;;;;;;;16.75;7.33;;;;;;;19.38;47.26;98445.25;1783393;80;21701;-79
2021/05/07 10:57:41;;;;;;;16.80;8.83;;;;;;;19.60;45.70;98439.27;1728384;82;21163;-79
2021/05/07 11:00:15;;;;;;;17.07;8.03;;;;;;;19.65;45.15;98432.34;1763541;80;21164;-78
2021/05/07 11:02:54;;;;;;;13.00;7.28;;;;;;;19.77;45.84;98422.72;1736125;81;21184;-78
2021/05/07 11:05:43;;;;;;;16.57;7.33;;;;;;;19.99;46.47;98411.42;1774951;80;21169;-78
2021/05/07 11:08:10;;;;;;;15.45;7.78;;;;;;;20.11;44.65;98410.48;1779234;79;21168;-77
2021/05/07 11:10:38;;;;;;;12.47;6.33;;;;;;;20.31;43.33;98402.38;1773414;80;21625;-79
2021/05/07 11:13:07;;;;;;;13.10;6.47;;;;;;;20.56;45.02;98405.80;1780845;80;21185;-80
2021/05/07 11:15:35;;;;;;;16.93;5.53;;;;;;;20.75;44.40;98391.57;1777538;80;21725;-80
2021/05/07 11:18:08;;;;;;;13.08;5.72;;;;;;;20.99;43.88;98393.22;1783439;80;21165;-80
2021/05/07 11:20:42;;;;;;;12.40;5.25;;;;;;;21.17;43.94;98393.09;1775977;80;21768;-80
2021/05/07 11:23:11;;;;;;;10.98;5.55;;;;;;;21.36;43.49;98391.12;1775326;80;21161;-79
2021/05/07 11:25:41;;;;;;;10.28;5.47;;;;;;;21.60;42.60;98386.98;1786398;79;21564;-80
2021/05/07 11:28:19;;;;;;;12.88;4.97;;;;;;;21.85;42.63;98379.70;1797728;79;21601;-80
2021/05/07 11:30:56;;;;;;;10.93;3.90;;;;;;;22.09;42.30;98364.06;1790751;78;21178;-79
2021/05/07 11:33:28;;;;;;;8.98;4.70;;;;;;;22.18;42.03;98369.89;1801059;79;21595;-79
2021/05/07 11:36:08;;;;;;;9.45;4.47;;;;;;;22.07;40.45;98354.09;1793679;79;22174;-80